createdAt,value
2022-08-07T00:02:36.132Z,78.93
2022-08-07T00:05:04.253Z,78.84
2022-08-07T00:07:40.826Z,78.58
2022-08-07T00:10:27.371Z,78.36
2022-08-07T00:13:01.203Z,78.59
2022-08-07T00:15:38.253Z,78.85
2022-08-07T00:18:19.907Z,78.31
2022-08-07T00:20:54.089Z,77.61
2022-08-07T00:23:22.294Z,77.95
2022-08-07T00:25:59.062Z,78.86
2022-08-07T00:28:33.199Z,79.37
2022-08-07T00:31:05.722Z,79.77
2022-08-07T00:33:33.488Z,80.67
2022-08-07T00:36:02.616Z,81.48
2022-08-07T00:38:31.788Z,81.42
2022-08-07T00:41:00.950Z,80.34
2022-08-07T00:44:01.246Z,80.55
2022-08-07T00:46:16.021Z,79.15
2022-08-07T00:48:43.482Z,79.16
2022-08-07T00:51:12.398Z,79.88
2022-08-07T00:53:55.009Z,80.83
2022-08-07T00:56:30.224Z,81.61
2022-08-07T00:58:58.557Z,81.05
2022-08-07T01:01:26.751Z,81.76
2022-08-07T01:04:00.192Z,81.63
2022-08-07T01:06:30.145Z,82.38
2022-08-07T01:09:00.791Z,82.18
2022-08-07T01:12:23.537Z,82.43
2022-08-07T01:14:16.868Z,82.38
2022-08-07T01:16:47.145Z,81.83
2022-08-07T01:19:19.110Z,81.04
2022-08-07T01:21:53.295Z,81.14
2022-08-07T01:24:23.636Z,81.86
2022-08-07T01:26:53.781Z,82.99
2022-08-07T01:29:23.411Z,83.08
2022-08-07T01:31:55.944Z,83.79
2022-08-07T01:34:30.684Z,82.64
2022-08-07T01:37:01.310Z,79.77
2022-08-07T01:39:40.718Z,79.88
2022-08-07T01:42:40.219Z,80.67
2022-08-07T01:45:03.173Z,81.51
2022-08-07T01:48:18.499Z,81.30
2022-08-07T01:50:22.727Z,81.48
2022-08-07T01:52:59.630Z,81.50
2022-08-07T01:55:29.572Z,81.49
2022-08-07T01:58:06.489Z,82.45
2022-08-07T02:01:25.164Z,83.07
2022-08-07T02:03:57.234Z,82.53
2022-08-07T02:06:31.215Z,84.01
2022-08-07T02:09:04.515Z,84.41
2022-08-07T02:12:04.089Z,84.17
2022-08-07T02:14:36.073Z,83.65
2022-08-07T02:17:08.432Z,83.42
2022-08-07T02:20:06.880Z,83.87
2022-08-07T02:22:27.089Z,84.43
2022-08-07T02:24:58.109Z,84.91
2022-08-07T02:27:34.454Z,85.26
2022-08-07T02:30:07.161Z,84.68
2022-08-07T02:32:36.243Z,85.15
2022-08-07T02:35:10.594Z,84.18
2022-08-07T02:37:43.989Z,83.89
2022-08-07T02:40:34.868Z,84.85
2022-08-07T02:43:02.583Z,84.87
2022-08-07T02:46:00.734Z,83.00
2022-08-07T02:48:27.455Z,82.61
2022-08-07T02:50:57.091Z,83.01
2022-08-07T02:53:27.772Z,83.03
2022-08-07T02:56:04.287Z,83.98
2022-08-07T02:58:34.774Z,85.04
2022-08-07T03:01:04.602Z,84.92
2022-08-07T03:03:49.913Z,82.89
2022-08-07T03:06:25.910Z,82.59
2022-08-07T03:09:01.914Z,83.59
2022-08-07T03:11:32.622Z,83.74
2022-08-07T03:14:02.065Z,83.35
2022-08-07T03:16:30.707Z,84.37
2022-08-07T03:18:59.001Z,85.01
2022-08-07T03:21:27.575Z,85.14
2022-08-07T03:24:20.625Z,85.10
2022-08-07T03:26:57.978Z,85.19
2022-08-07T03:29:28.946Z,85.37
2022-08-07T03:31:57.548Z,85.44
2022-08-07T03:34:28.762Z,85.47
2022-08-07T03:36:58.206Z,85.94
2022-08-07T03:39:59.281Z,86.00
2022-08-07T03:42:18.285Z,85.79
2022-08-07T03:44:53.811Z,86.09
2022-08-07T03:47:26.278Z,86.11
2022-08-07T03:49:58.332Z,85.06
2022-08-07T03:52:28.623Z,84.82
2022-08-07T03:55:06.217Z,84.33
2022-08-07T03:58:33.768Z,85.00
2022-08-07T04:00:29.296Z,85.28
2022-08-07T04:02:59.053Z,85.30
2022-08-07T04:05:39.672Z,86.65
2022-08-07T04:08:11.319Z,86.01
2022-08-07T04:10:39.469Z,85.92
2022-08-07T04:13:15.457Z,86.50
2022-08-07T04:15:45.522Z,85.51
2022-08-07T04:18:58.353Z,85.13
2022-08-07T04:21:02.983Z,84.54
2022-08-07T04:23:43.754Z,85.16
2022-08-07T04:26:23.323Z,83.94
2022-08-07T04:28:58.575Z,84.12
2022-08-07T04:31:38.751Z,84.21
2022-08-07T04:34:16.754Z,83.65
2022-08-07T04:36:45.323Z,84.40
2022-08-07T04:39:17.599Z,85.23
2022-08-07T04:41:50.400Z,85.64
2022-08-07T04:44:20.418Z,87.37
2022-08-07T04:47:03.770Z,86.59
2022-08-07T04:49:47.582Z,82.72
2022-08-07T04:52:34.993Z,83.42
2022-08-07T04:55:15.217Z,83.23
2022-08-07T04:58:11.027Z,83.43
2022-08-07T05:00:55.747Z,83.27
2022-08-07T05:04:00.008Z,83.83
2022-08-07T05:06:20.343Z,82.21
2022-08-07T05:09:01.441Z,82.78
2022-08-07T05:11:58.933Z,79.86
2022-08-07T05:14:55.126Z,79.86
2022-08-07T05:17:52.018Z,81.42
2022-08-07T05:20:10.159Z,80.39
2022-08-07T05:22:40.016Z,80.07
2022-08-07T05:25:11.808Z,79.42
2022-08-07T05:28:16.364Z,78.12
2022-08-07T05:30:44.205Z,79.33
2022-08-07T05:33:18.047Z,78.94
2022-08-07T05:35:49.674Z,78.71
2022-08-07T05:38:59.849Z,77.20
2022-08-07T05:41:14.178Z,76.71
2022-08-07T05:44:07.791Z,76.94
2022-08-07T05:46:36.735Z,76.29
2022-08-07T05:49:12.015Z,75.42
2022-08-07T05:51:42.440Z,74.65
2022-08-07T05:54:19.477Z,73.47
2022-08-07T05:56:58.927Z,74.72
2022-08-07T05:59:28.067Z,73.80
2022-08-07T06:01:56.722Z,72.07
2022-08-07T06:04:30.174Z,71.54
2022-08-07T06:07:03.630Z,72.41
2022-08-07T06:10:03.749Z,71.74
2022-08-07T06:12:20.864Z,68.98
2022-08-07T06:14:49.924Z,67.91
2022-08-07T06:17:18.895Z,66.96
2022-08-07T06:20:03.642Z,67.42
2022-08-07T06:22:38.532Z,63.62
2022-08-07T06:25:08.479Z,59.99
2022-08-07T06:28:00.208Z,61.81
2022-08-07T06:30:36.146Z,60.47
2022-08-07T06:33:10.008Z,57.93
2022-08-07T06:36:06.279Z,57.20
2022-08-07T06:38:32.857Z,57.72
2022-08-07T06:41:07.178Z,59.55
2022-08-07T06:43:46.566Z,61.03
2022-08-07T06:46:35.131Z,59.81
2022-08-07T06:49:04.504Z,60.59
2022-08-07T06:51:35.533Z,58.74
2022-08-07T06:55:31.492Z,59.69
2022-08-07T06:57:09.047Z,59.02
2022-08-07T07:00:11.394Z,56.27
2022-08-07T07:02:49.168Z,53.99
2022-08-07T07:06:02.407Z,53.63
2022-08-07T07:08:06.643Z,51.61
2022-08-07T07:10:37.712Z,50.91
2022-08-07T07:13:13.050Z,51.09
2022-08-07T07:15:45.402Z,49.98
2022-08-07T07:18:47.125Z,49.07
2022-08-07T07:21:19.884Z,49.55
2022-08-07T07:24:08.870Z,49.41
2022-08-07T07:26:38.899Z,47.13
2022-08-07T07:29:38.425Z,47.57
2022-08-07T07:32:03.939Z,47.58
2022-08-07T07:34:33.817Z,47.90
2022-08-07T07:37:05.611Z,46.32
2022-08-07T07:39:54.614Z,46.51
2022-08-07T07:42:32.978Z,48.31
2022-08-07T07:45:03.119Z,46.99
2022-08-07T07:47:51.851Z,46.58
2022-08-07T07:50:35.972Z,45.62
2022-08-07T07:53:13.628Z,45.31
2022-08-07T07:55:54.965Z,44.62
2022-08-07T07:58:30.287Z,45.59
2022-08-07T08:00:59.444Z,44.93
2022-08-07T08:04:09.343Z,45.15
2022-08-07T08:06:20.291Z,44.82
2022-08-07T08:08:50.230Z,43.40
2022-08-07T08:11:59.697Z,43.89
2022-08-07T08:14:08.514Z,43.51
2022-08-07T08:16:40.980Z,42.50
2022-08-07T08:20:18.852Z,40.80
2022-08-07T08:22:32.887Z,41.85
2022-08-07T08:25:26.896Z,41.92
2022-08-07T08:28:16.907Z,41.26
2022-08-07T08:30:55.632Z,39.73
2022-08-07T08:33:25.264Z,41.41
2022-08-07T08:35:59.231Z,41.57
2022-08-07T08:38:38.135Z,40.20
2022-08-07T08:41:15.590Z,41.04
2022-08-07T08:43:56.076Z,40.34
2022-08-07T08:46:38.337Z,41.30
2022-08-07T08:49:11.260Z,42.09
2022-08-07T08:51:49.392Z,40.95
2022-08-07T08:54:41.611Z,39.52
2022-08-07T08:57:17.478Z,40.43
2022-08-07T08:59:54.239Z,40.14
2022-08-07T09:02:37.566Z,41.00
2022-08-07T09:05:24.960Z,39.61
2022-08-07T09:08:11.952Z,40.42
2022-08-07T09:10:49.560Z,39.79
2022-08-07T09:13:37.595Z,38.96
2022-08-07T09:16:20.482Z,39.80
2022-08-07T09:19:51.322Z,37.93
2022-08-07T09:24:29.343Z,36.56
2022-08-07T09:25:14.822Z,36.64
2022-08-07T09:28:00.127Z,37.65
2022-08-07T09:30:37.971Z,38.06
2022-08-07T09:33:41.324Z,38.42
2022-08-07T09:36:16.102Z,38.47
2022-08-07T09:38:53.690Z,38.03
2022-08-07T09:41:36.358Z,37.98
2022-08-07T09:47:26.312Z,37.38
2022-08-07T09:47:56.007Z,37.97
2022-08-07T09:50:37.367Z,36.52
2022-08-07T09:53:12.500Z,37.36
2022-08-07T09:56:03.206Z,37.85
2022-08-07T09:59:07.764Z,38.20
2022-08-07T10:01:58.965Z,37.11
2022-08-07T10:04:38.399Z,36.71
2022-08-07T10:07:52.861Z,37.65
2022-08-07T10:10:43.623Z,37.51
2022-08-07T10:14:00.881Z,36.65
2022-08-07T10:16:46.753Z,37.57
2022-08-07T10:19:41.853Z,37.76
2022-08-07T10:22:33.567Z,35.57
2022-08-07T10:25:42.786Z,36.69
2022-08-07T10:28:23.554Z,35.89
2022-08-07T10:31:11.242Z,35.85
2022-08-07T10:34:14.299Z,36.25
2022-08-07T10:36:59.273Z,36.77
2022-08-07T10:40:03.421Z,36.70
2022-08-07T10:42:39.431Z,35.59
2022-08-07T10:45:19.524Z,35.67
2022-08-07T10:48:15.766Z,34.06
2022-08-07T10:50:50.095Z,35.58
2022-08-07T10:53:28.577Z,35.04
2022-08-07T10:56:31.451Z,35.59
2022-08-07T10:59:10.506Z,35.28
2022-08-07T11:02:05.297Z,34.85
2022-08-07T11:05:10.579Z,35.38
2022-08-07T11:07:58.923Z,35.34
2022-08-07T11:10:35.138Z,36.14
2022-08-07T11:14:43.554Z,34.91
2022-08-07T11:16:19.551Z,35.49
2022-08-07T11:18:51.747Z,34.95
2022-08-07T11:21:31.894Z,35.83
2022-08-07T11:24:08.507Z,34.08
2022-08-07T11:26:43.311Z,34.60
2022-08-07T11:29:40.899Z,34.30
2022-08-07T11:32:26.236Z,33.94
2022-08-07T11:34:58.263Z,34.14
2022-08-07T11:37:38.380Z,34.08
2022-08-07T11:40:36.441Z,36.14
2022-08-07T11:43:15.554Z,34.54
2022-08-07T11:46:05.679Z,33.12
2022-08-07T11:49:51.539Z,34.19
2022-08-07T11:51:51.552Z,33.90
2022-08-07T11:54:55.024Z,34.34
2022-08-07T11:57:51.000Z,34.54
2022-08-07T12:00:21.226Z,33.36
2022-08-07T12:03:41.921Z,34.70
2022-08-07T12:06:37.034Z,34.06
2022-08-07T12:09:16.617Z,34.59
2022-08-07T12:12:10.305Z,33.96
2022-08-07T12:14:55.245Z,34.25
2022-08-07T12:17:33.469Z,32.87
2022-08-07T12:20:18.606Z,33.67
2022-08-07T12:23:14.496Z,31.23
2022-08-07T12:26:22.095Z,32.98
2022-08-07T12:28:53.291Z,32.83
2022-08-07T12:31:52.335Z,34.58
2022-08-07T12:34:18.040Z,34.01
2022-08-07T12:36:50.156Z,34.48
2022-08-07T12:39:43.170Z,33.34
2022-08-07T12:42:10.207Z,34.21
2022-08-07T12:44:44.925Z,34.18
2022-08-07T12:47:26.982Z,34.12
2022-08-07T12:50:38.527Z,33.98
2022-08-07T12:53:01.054Z,34.60
2022-08-07T12:55:40.702Z,33.70
2022-08-07T12:58:13.263Z,34.68
2022-08-07T13:00:51.399Z,33.51
2022-08-07T13:03:54.855Z,33.42
2022-08-07T13:07:01.153Z,33.06
2022-08-07T13:10:18.937Z,31.27
2022-08-07T13:12:32.607Z,32.53
2022-08-07T13:15:14.966Z,31.26
2022-08-07T13:18:04.194Z,32.67
2022-08-07T13:20:41.117Z,33.00
2022-08-07T13:24:02.081Z,32.98
2022-08-07T13:26:16.077Z,33.44
2022-08-07T13:28:58.773Z,33.48
2022-08-07T13:31:32.167Z,32.52
2022-08-07T13:34:33.539Z,32.52
2022-08-07T13:37:10.668Z,32.35
2022-08-07T13:40:36.634Z,31.89
2022-08-07T13:42:39.773Z,31.55
2022-08-07T13:45:20.782Z,32.06
2022-08-07T13:48:06.327Z,30.68
2022-08-07T13:50:44.765Z,30.65
2022-08-07T13:53:36.047Z,30.85
2022-08-07T13:56:35.980Z,30.26
2022-08-07T13:59:13.718Z,30.16
2022-08-07T14:02:04.416Z,28.89
2022-08-07T14:04:36.911Z,28.97
2022-08-07T14:07:10.044Z,29.89
2022-08-07T14:10:01.534Z,29.32
2022-08-07T14:12:41.968Z,28.31
2022-08-07T14:15:31.968Z,29.25
2022-08-07T14:18:24.019Z,29.17
2022-08-07T14:21:00.204Z,28.22
2022-08-07T14:23:59.992Z,28.23
2022-08-07T14:26:32.350Z,29.27
2022-08-07T14:31:57.855Z,27.48
2022-08-07T14:34:30.045Z,27.14
2022-08-07T14:37:01.654Z,27.67
2022-08-07T14:40:15.803Z,28.11
2022-08-07T14:42:25.826Z,28.40
2022-08-07T14:47:50.026Z,28.94
2022-08-07T14:50:22.469Z,27.44
2022-08-07T14:52:53.967Z,27.78
2022-08-07T14:55:22.852Z,26.72
2022-08-07T14:57:58.111Z,26.21
2022-08-07T15:00:30.969Z,27.67
2022-08-07T15:03:16.530Z,27.44
2022-08-07T15:05:55.367Z,27.20
2022-08-07T15:08:33.890Z,26.28
2022-08-07T15:11:05.441Z,26.08
2022-08-07T15:13:36.955Z,28.19
2022-08-07T15:16:11.134Z,27.69
2022-08-07T15:21:43.930Z,27.03
2022-08-07T15:25:13.619Z,28.78
2022-08-07T15:27:09.402Z,27.95
2022-08-07T15:32:40.108Z,26.67
2022-08-07T15:36:02.224Z,27.81
2022-08-07T15:38:30.410Z,27.44
2022-08-07T15:41:22.802Z,25.97
2022-08-07T15:44:00.303Z,26.75
2022-08-07T15:46:37.647Z,26.41
2022-08-07T15:49:15.241Z,27.14
2022-08-07T15:54:34.035Z,26.91
2022-08-07T15:57:03.506Z,27.31
2022-08-07T15:59:39.486Z,25.16
2022-08-07T16:02:23.826Z,26.77
2022-08-07T16:04:57.009Z,28.12
2022-08-07T16:08:32.327Z,27.64
2022-08-07T16:10:21.648Z,27.58
2022-08-07T16:13:05.749Z,25.98
2022-08-07T16:15:57.663Z,27.46
2022-08-07T16:18:50.759Z,27.61
2022-08-07T16:22:01.371Z,27.52
2022-08-07T16:24:34.452Z,27.86
2022-08-07T16:27:18.278Z,27.84
2022-08-07T16:30:11.335Z,28.80
2022-08-07T16:32:58.481Z,27.96
2022-08-07T16:35:58.496Z,28.60
2022-08-07T16:38:58.575Z,28.33
2022-08-07T16:42:02.206Z,28.49
2022-08-07T16:45:15.516Z,28.43
2022-08-07T16:47:56.697Z,28.74
2022-08-07T16:50:38.949Z,28.18
2022-08-07T16:54:01.109Z,29.12
2022-08-07T16:56:37.560Z,28.54
2022-08-07T16:59:17.467Z,28.70
2022-08-07T17:02:09.038Z,28.30
2022-08-07T17:04:50.983Z,28.80
2022-08-07T17:07:55.099Z,29.80
2022-08-07T17:10:33.972Z,30.28
2022-08-07T17:13:41.326Z,30.25
2022-08-07T17:16:20.709Z,29.89
2022-08-07T17:19:01.823Z,29.61
2022-08-07T17:21:51.824Z,29.01
2022-08-07T17:24:48.819Z,29.41
2022-08-07T17:27:32.596Z,29.05
2022-08-07T17:30:16.010Z,29.10
2022-08-07T17:34:09.613Z,30.35
2022-08-07T17:35:59.699Z,29.97
2022-08-07T17:38:35.216Z,30.38
2022-08-07T17:42:02.821Z,29.88
2022-08-07T17:44:05.623Z,29.81
2022-08-07T17:46:42.843Z,30.77
2022-08-07T17:49:23.815Z,30.97
2022-08-07T17:52:00.484Z,31.51
2022-08-07T17:54:40.104Z,30.07
2022-08-07T17:57:56.353Z,31.10
2022-08-07T18:00:33.353Z,30.92
2022-08-07T18:03:18.108Z,31.64
2022-08-07T18:06:02.072Z,32.52
2022-08-07T18:08:33.618Z,33.15
2022-08-07T18:12:06.697Z,33.27
2022-08-07T18:14:01.917Z,34.06
2022-08-07T18:16:34.938Z,34.13
2022-08-07T18:21:07.957Z,34.27
2022-08-07T18:22:15.100Z,34.47
2022-08-07T18:24:51.282Z,35.25
2022-08-07T18:27:44.543Z,35.08
2022-08-07T18:30:32.516Z,35.84
2022-08-07T18:33:37.074Z,35.90
2022-08-07T18:36:17.848Z,36.43
2022-08-07T18:40:06.674Z,37.23
2022-08-07T18:42:12.823Z,38.26
2022-08-07T18:48:01.193Z,38.38
2022-08-07T18:50:53.488Z,37.98
2022-08-07T18:53:37.084Z,38.98
2022-08-07T18:56:20.245Z,39.71
2022-08-07T18:59:47.539Z,40.04
2022-08-07T19:02:33.111Z,40.69
2022-08-07T19:05:10.808Z,41.27
2022-08-07T19:07:57.130Z,43.32
2022-08-07T19:10:32.002Z,42.68
2022-08-07T19:13:26.465Z,43.27
2022-08-07T19:16:04.931Z,43.59
2022-08-07T19:18:55.318Z,44.72
2022-08-07T19:21:44.223Z,45.45
2022-08-07T19:24:44.608Z,45.63
2022-08-07T19:28:29.187Z,46.21
2022-08-07T19:31:06.041Z,46.46
2022-08-07T19:33:10.066Z,46.75
2022-08-07T19:35:43.374Z,47.12
2022-08-07T19:38:15.808Z,48.10
2022-08-07T19:40:49.571Z,47.94
2022-08-07T19:43:44.031Z,48.87
2022-08-07T19:46:10.700Z,48.59
2022-08-07T19:48:43.056Z,48.93
2022-08-07T19:51:19.359Z,49.28
2022-08-07T19:54:35.068Z,49.80
2022-08-07T19:58:02.556Z,50.16
2022-08-07T19:59:41.214Z,50.53
2022-08-07T20:02:19.465Z,50.83
2022-08-07T20:04:58.066Z,50.75
2022-08-07T20:07:47.149Z,51.15
2022-08-07T20:10:37.290Z,51.46
2022-08-07T20:13:15.865Z,51.93
2022-08-07T20:15:53.729Z,52.49
2022-08-07T20:18:32.394Z,52.37
2022-08-07T20:21:03.005Z,52.54
2022-08-07T20:23:41.964Z,52.71
2022-08-07T20:26:12.851Z,52.64
2022-08-07T20:28:53.769Z,52.88
2022-08-07T20:31:24.699Z,53.15
2022-08-07T20:33:57.307Z,53.59
2022-08-07T20:36:28.172Z,54.15
2022-08-07T20:39:00.303Z,54.29
2022-08-07T20:41:38.032Z,54.14
2022-08-07T20:44:10.511Z,54.56
2022-08-07T20:46:43.175Z,54.82
2022-08-07T20:49:58.049Z,54.54
2022-08-07T20:52:13.832Z,54.80
2022-08-07T20:54:53.619Z,55.19
2022-08-07T20:57:24.623Z,55.28
2022-08-07T21:00:05.541Z,55.43
2022-08-07T21:02:57.879Z,55.24
2022-08-07T21:05:52.629Z,55.63
2022-08-07T21:08:37.888Z,55.93
2022-08-07T21:11:12.317Z,56.11
2022-08-07T21:14:16.506Z,56.39
2022-08-07T21:16:56.031Z,56.14
2022-08-07T21:19:32.080Z,56.52
2022-08-07T21:22:19.502Z,56.86
2022-08-07T21:25:04.850Z,56.87
2022-08-07T21:27:53.817Z,56.72
2022-08-07T21:30:30.048Z,56.93
2022-08-07T21:33:15.736Z,56.99
2022-08-07T21:36:05.277Z,57.30
2022-08-07T21:38:49.719Z,57.32
2022-08-07T21:41:23.280Z,57.29
2022-08-07T21:43:57.835Z,57.50
2022-08-07T21:46:36.847Z,57.74
2022-08-07T21:49:14.917Z,57.57
2022-08-07T21:51:55.637Z,57.79
2022-08-07T21:54:33.285Z,58.06
2022-08-07T21:57:30.934Z,57.97
2022-08-07T22:00:08.735Z,58.31
2022-08-07T22:02:44.153Z,58.29
2022-08-07T22:05:44.593Z,58.27
2022-08-07T22:08:06.465Z,58.51
2022-08-07T22:10:42.510Z,58.79
2022-08-07T22:13:14.003Z,59.32
2022-08-07T22:16:44.187Z,59.53
2022-08-07T22:18:40.955Z,59.60
2022-08-07T22:21:15.377Z,59.98
2022-08-07T22:23:45.638Z,60.02
2022-08-07T22:26:20.440Z,59.73
2022-08-07T22:28:55.801Z,60.02
2022-08-07T22:31:59.076Z,60.11
2022-08-07T22:34:28.732Z,60.20
2022-08-07T22:37:09.311Z,60.24
2022-08-07T22:39:53.200Z,60.25
2022-08-07T22:42:30.394Z,60.04
2022-08-07T22:45:02.434Z,60.37
2022-08-07T22:47:59.057Z,60.80
2022-08-07T22:50:46.666Z,60.67
2022-08-07T22:54:07.766Z,60.72
2022-08-07T22:56:30.891Z,61.20
2022-08-07T22:59:43.848Z,61.68
2022-08-07T23:02:31.442Z,62.21
2022-08-07T23:06:07.167Z,62.24
2022-08-07T23:08:30.274Z,62.13
2022-08-07T23:11:13.357Z,62.19
2022-08-07T23:14:15.176Z,61.92
2022-08-07T23:16:55.897Z,61.91
2022-08-07T23:19:59.971Z,62.47
2022-08-07T23:22:45.299Z,62.22
2022-08-07T23:25:28.540Z,62.28
2022-08-07T23:28:21.378Z,62.07
2022-08-07T23:31:11.703Z,62.30
2022-08-07T23:34:34.749Z,62.89
2022-08-07T23:37:30.382Z,63.59
2022-08-07T23:40:10.119Z,64.25
2022-08-07T23:42:53.343Z,64.29
2022-08-07T23:45:33.217Z,64.27
2022-08-07T23:48:33.911Z,64.13
2022-08-07T23:51:12.390Z,64.16
2022-08-07T23:54:06.251Z,64.54
2022-08-07T23:56:53.885Z,65.08
